sensor_id;sensor_type;location;lat;lon;timestamp;temperature;humidity
16517;DHT22;8371;52.272;9.746;2024-03-23T00:56:20;10.40;80.30
16517;DHT22;8371;52.272;9.746;2024-03-23T00:58:46;10.50;80.40
16517;DHT22;8371;52.272;9.746;2024-03-23T01:01:11;10.50;80.40
16517;DHT22;8371;52.272;9.746;2024-03-23T01:03:37;10.50;80.40
16517;DHT22;8371;52.272;9.746;2024-03-23T01:06:03;10.40;80.20
16517;DHT22;8371;52.272;9.746;2024-03-23T01:08:31;10.40;80.20
16517;DHT22;8371;52.272;9.746;2024-03-23T01:10:59;10.40;80.20
16517;DHT22;8371;52.272;9.746;2024-03-23T01:13:25;10.40;80.20
16517;DHT22;8371;52.272;9.746;2024-03-23T01:15:52;10.40;80.30
16517;DHT22;8371;52.272;9.746;2024-03-23T01:18:18;10.40;80.30
16517;DHT22;8371;52.272;9.746;2024-03-23T01:20:44;10.40;80.30
16517;DHT22;8371;52.272;9.746;2024-03-23T01:23:10;10.40;80.40
16517;DHT22;8371;52.272;9.746;2024-03-23T01:25:36;10.40;80.40
16517;DHT22;8371;52.272;9.746;2024-03-23T01:28:02;10.30;80.30
16517;DHT22;8371;52.272;9.746;2024-03-23T01:30:27;10.40;80.50
16517;DHT22;8371;52.272;9.746;2024-03-23T01:32:53;10.30;80.30
16517;DHT22;8371;52.272;9.746;2024-03-23T01:35:19;10.30;80.40
16517;DHT22;8371;52.272;9.746;2024-03-23T01:37:44;10.30;80.30
16517;DHT22;8371;52.272;9.746;2024-03-23T01:40:11;10.30;80.40
16517;DHT22;8371;52.272;9.746;2024-03-23T01:42:39;10.30;80.40
16517;DHT22;8371;52.272;9.746;2024-03-23T01:45:07;10.30;80.40
16517;DHT22;8371;52.272;9.746;2024-03-23T01:47:34;10.30;80.50
16517;DHT22;8371;52.272;9.746;2024-03-23T01:50:00;10.30;80.40
16517;DHT22;8371;52.272;9.746;2024-03-23T01:52:26;10.30;80.40
16517;DHT22;8371;52.272;9.746;2024-03-23T01:54:53;10.30;80.40
16517;DHT22;8371;52.272;9.746;2024-03-23T01:57:19;10.20;80.30
16517;DHT22;8371;52.272;9.746;2024-03-23T01:59:48;10.20;80.30
16517;DHT22;8371;52.272;9.746;2024-03-23T02:02:14;10.20;80.40
16517;DHT22;8371;52.272;9.746;2024-03-23T02:04:42;10.20;80.30
16517;DHT22;8371;52.272;9.746;2024-03-23T02:07:07;10.20;80.30
16517;DHT22;8371;52.272;9.746;2024-03-23T02:09:33;10.20;80.30
16517;DHT22;8371;52.272;9.746;2024-03-23T02:12:04;10.20;80.30
16517;DHT22;8371;52.272;9.746;2024-03-23T02:14:30;10.20;80.40
16517;DHT22;8371;52.272;9.746;2024-03-23T02:16:55;10.20;80.40
16517;DHT22;8371;52.272;9.746;2024-03-23T02:19:21;10.10;80.30
16517;DHT22;8371;52.272;9.746;2024-03-23T02:21:46;10.10;80.30
16517;DHT22;8371;52.272;9.746;2024-03-23T02:24:12;10.10;80.40
16517;DHT22;8371;52.272;9.746;2024-03-23T02:26:38;10.10;80.40
16517;DHT22;8371;52.272;9.746;2024-03-23T02:29:04;10.10;80.40
16517;DHT22;8371;52.272;9.746;2024-03-23T02:31:29;10.10;80.50
16517;DHT22;8371;52.272;9.746;2024-03-23T02:33:55;10.10;80.50
16517;DHT22;8371;52.272;9.746;2024-03-23T02:36:21;10.10;80.60
16517;DHT22;8371;52.272;9.746;2024-03-23T02:38:47;10.10;80.60
16517;DHT22;8371;52.272;9.746;2024-03-23T02:41:12;10.00;80.70
16517;DHT22;8371;52.272;9.746;2024-03-23T02:43:39;10.00;80.60
16517;DHT22;8371;52.272;9.746;2024-03-23T02:46:05;10.00;80.70
16517;DHT22;8371;52.272;9.746;2024-03-23T02:48:30;10.00;80.70
16517;DHT22;8371;52.272;9.746;2024-03-23T02:50:56;10.00;80.80
16517;DHT22;8371;52.272;9.746;2024-03-23T02:53:22;10.00;80.80
16517;DHT22;8371;52.272;9.746;2024-03-23T02:55:47;10.00;80.90
16517;DHT22;8371;52.272;9.746;2024-03-23T02:58:13;10.00;80.90
16517;DHT22;8371;52.272;9.746;2024-03-23T03:00:39;10.00;80.90
16517;DHT22;8371;52.272;9.746;2024-03-23T03:03:06;10.00;81.00
16517;DHT22;8371;52.272;9.746;2024-03-23T03:05:32;10.00;81.00
16517;DHT22;8371;52.272;9.746;2024-03-23T03:07:58;10.00;81.10
16517;DHT22;8371;52.272;9.746;2024-03-23T03:10:24;10.00;81.10
16517;DHT22;8371;52.272;9.746;2024-03-23T03:12:49;10.00;81.10
16517;DHT22;8371;52.272;9.746;2024-03-23T03:15:15;10.00;81.20
16517;DHT22;8371;52.272;9.746;2024-03-23T03:17:41;10.00;81.10
16517;DHT22;8371;52.272;9.746;2024-03-23T03:20:07;10.00;82.00
16517;DHT22;8371;52.272;9.746;2024-03-23T03:22:33;10.00;81.20
16517;DHT22;8371;52.272;9.746;2024-03-23T03:24:59;10.00;81.40
16517;DHT22;8371;52.272;9.746;2024-03-23T03:27:25;10.00;81.30
16517;DHT22;8371;52.272;9.746;2024-03-23T03:29:51;10.00;81.30
16517;DHT22;8371;52.272;9.746;2024-03-23T03:32:17;10.00;81.30
16517;DHT22;8371;52.272;9.746;2024-03-23T03:34:42;9.90;81.20
16517;DHT22;8371;52.272;9.746;2024-03-23T03:37:08;9.90;81.10
16517;DHT22;8371;52.272;9.746;2024-03-23T03:39:34;9.90;81.10
16517;DHT22;8371;52.272;9.746;2024-03-23T03:42:00;9.90;81.00
16517;DHT22;8371;52.272;9.746;2024-03-23T03:44:27;9.90;81.80
16517;DHT22;8371;52.272;9.746;2024-03-23T03:46:52;9.90;80.80
16517;DHT22;8371;52.272;9.746;2024-03-23T03:49:18;9.80;80.80
16517;DHT22;8371;52.272;9.746;2024-03-23T03:51:44;9.90;80.80
16517;DHT22;8371;52.272;9.746;2024-03-23T03:54:10;9.80;80.80
16517;DHT22;8371;52.272;9.746;2024-03-23T03:56:36;9.80;80.70
16517;DHT22;8371;52.272;9.746;2024-03-23T03:59:01;9.80;80.80
16517;DHT22;8371;52.272;9.746;2024-03-23T04:01:27;9.70;80.80
16517;DHT22;8371;52.272;9.746;2024-03-23T04:03:53;9.70;80.80
16517;DHT22;8371;52.272;9.746;2024-03-23T04:06:19;9.70;80.80
16517;DHT22;8371;52.272;9.746;2024-03-23T04:08:45;9.60;80.70
16517;DHT22;8371;52.272;9.746;2024-03-23T04:11:11;9.60;80.80
16517;DHT22;8371;52.272;9.746;2024-03-23T04:13:36;9.60;80.80
16517;DHT22;8371;52.272;9.746;2024-03-23T04:16:02;9.60;81.60
16517;DHT22;8371;52.272;9.746;2024-03-23T04:18:28;9.60;80.90
16517;DHT22;8371;52.272;9.746;2024-03-23T04:20:54;9.60;81.00
16517;DHT22;8371;52.272;9.746;2024-03-23T04:23:19;9.50;80.90
16517;DHT22;8371;52.272;9.746;2024-03-23T04:25:46;9.50;80.90
16517;DHT22;8371;52.272;9.746;2024-03-23T04:28:12;9.50;80.90
16517;DHT22;8371;52.272;9.746;2024-03-23T04:30:38;9.50;80.90
16517;DHT22;8371;52.272;9.746;2024-03-23T04:33:04;9.50;81.00
16517;DHT22;8371;52.272;9.746;2024-03-23T04:35:30;9.50;81.10
16517;DHT22;8371;52.272;9.746;2024-03-23T04:37:56;9.50;81.20
16517;DHT22;8371;52.272;9.746;2024-03-23T04:40:24;9.50;81.20
16517;DHT22;8371;52.272;9.746;2024-03-23T04:42:50;9.40;81.30
16517;DHT22;8371;52.272;9.746;2024-03-23T04:45:16;9.40;81.30
16517;DHT22;8371;52.272;9.746;2024-03-23T04:47:41;9.40;81.30
16517;DHT22;8371;52.272;9.746;2024-03-23T04:50:08;9.40;81.40
16517;DHT22;8371;52.272;9.746;2024-03-23T04:52:36;9.40;81.40
16517;DHT22;8371;52.272;9.746;2024-03-23T04:55:02;9.30;81.30
16517;DHT22;8371;52.272;9.746;2024-03-23T04:57:27;9.40;81.50
16517;DHT22;8371;52.272;9.746;2024-03-23T04:59:53;9.40;81.50
16517;DHT22;8371;52.272;9.746;2024-03-23T05:02:19;9.40;81.50
16517;DHT22;8371;52.272;9.746;2024-03-23T05:04:44;9.40;81.50
16517;DHT22;8371;52.272;9.746;2024-03-23T05:07:10;9.40;81.60
16517;DHT22;8371;52.272;9.746;2024-03-23T05:09:36;9.40;81.60
16517;DHT22;8371;52.272;9.746;2024-03-23T05:12:02;9.40;81.70
16517;DHT22;8371;52.272;9.746;2024-03-23T05:14:28;9.30;81.60
16517;DHT22;8371;52.272;9.746;2024-03-23T05:16:54;9.30;81.70
16517;DHT22;8371;52.272;9.746;2024-03-23T05:19:20;9.40;81.90
16517;DHT22;8371;52.272;9.746;2024-03-23T05:21:45;9.30;81.90
16517;DHT22;8371;52.272;9.746;2024-03-23T05:24:11;9.30;81.80
16517;DHT22;8371;52.272;9.746;2024-03-23T05:26:38;9.30;81.80
16517;DHT22;8371;52.272;9.746;2024-03-23T05:29:04;9.30;81.80
16517;DHT22;8371;52.272;9.746;2024-03-23T05:31:30;9.30;81.90
16517;DHT22;8371;52.272;9.746;2024-03-23T05:33:56;9.30;81.90
16517;DHT22;8371;52.272;9.746;2024-03-23T05:36:22;9.30;81.90
16517;DHT22;8371;52.272;9.746;2024-03-23T05:38:50;9.30;81.90
16517;DHT22;8371;52.272;9.746;2024-03-23T05:41:15;9.30;81.80
16517;DHT22;8371;52.272;9.746;2024-03-23T05:43:41;9.30;81.90
16517;DHT22;8371;52.272;9.746;2024-03-23T05:46:07;9.30;81.70
16517;DHT22;8371;52.272;9.746;2024-03-23T05:48:36;9.30;81.60
16517;DHT22;8371;52.272;9.746;2024-03-23T05:51:02;9.20;81.30
16517;DHT22;8371;52.272;9.746;2024-03-23T05:53:28;9.20;81.10
16517;DHT22;8371;52.272;9.746;2024-03-23T05:56:03;9.10;81.00
16517;DHT22;8371;52.272;9.746;2024-03-23T05:58:32;9.10;81.10
16517;DHT22;8371;52.272;9.746;2024-03-23T06:00:59;9.00;81.00
16517;DHT22;8371;52.272;9.746;2024-03-23T06:03:27;9.00;81.10
16517;DHT22;8371;52.272;9.746;2024-03-23T06:05:53;8.90;81.10
16517;DHT22;8371;52.272;9.746;2024-03-23T06:08:19;8.90;81.10
16517;DHT22;8371;52.272;9.746;2024-03-23T06:10:46;8.90;81.10
16517;DHT22;8371;52.272;9.746;2024-03-23T06:13:12;8.90;81.10
16517;DHT22;8371;52.272;9.746;2024-03-23T06:15:38;8.80;81.10
16517;DHT22;8371;52.272;9.746;2024-03-23T06:18:04;8.80;81.20
16517;DHT22;8371;52.272;9.746;2024-03-23T06:20:30;8.80;81.20
16517;DHT22;8371;52.272;9.746;2024-03-23T06:22:57;8.70;81.10
16517;DHT22;8371;52.272;9.746;2024-03-23T06:25:23;8.70;81.20
16517;DHT22;8371;52.272;9.746;2024-03-23T06:27:49;8.70;81.20
16517;DHT22;8371;52.272;9.746;2024-03-23T06:30:14;8.70;81.30
16517;DHT22;8371;52.272;9.746;2024-03-23T06:32:40;8.70;81.30
16517;DHT22;8371;52.272;9.746;2024-03-23T06:35:07;8.70;81.30
16517;DHT22;8371;52.272;9.746;2024-03-23T06:37:34;8.70;81.40
16517;DHT22;8371;52.272;9.746;2024-03-23T06:40:00;8.70;81.50
16517;DHT22;8371;52.272;9.746;2024-03-23T06:42:25;8.70;81.50
16517;DHT22;8371;52.272;9.746;2024-03-23T06:44:51;8.80;81.60
16517;DHT22;8371;52.272;9.746;2024-03-23T06:47:17;8.80;81.70
16517;DHT22;8371;52.272;9.746;2024-03-23T06:49:42;8.80;81.60
16517;DHT22;8371;52.272;9.746;2024-03-23T06:52:08;8.80;81.70
16517;DHT22;8371;52.272;9.746;2024-03-23T06:54:34;8.90;81.70
16517;DHT22;8371;52.272;9.746;2024-03-23T06:56:59;8.80;81.70
16517;DHT22;8371;52.272;9.746;2024-03-23T06:59:25;8.90;81.90
16517;DHT22;8371;52.272;9.746;2024-03-23T07:01:51;8.90;82.00
16517;DHT22;8371;52.272;9.746;2024-03-23T07:04:16;8.90;82.10
16517;DHT22;8371;52.272;9.746;2024-03-23T07:06:43;8.90;81.90
16517;DHT22;8371;52.272;9.746;2024-03-23T07:09:09;9.00;82.00
16517;DHT22;8371;52.272;9.746;2024-03-23T07:11:35;9.00;81.90
16517;DHT22;8371;52.272;9.746;2024-03-23T07:14:02;9.00;82.00
16517;DHT22;8371;52.272;9.746;2024-03-23T07:16:28;9.00;81.90
16517;DHT22;8371;52.272;9.746;2024-03-23T07:18:54;9.10;82.00
16517;DHT22;8371;52.272;9.746;2024-03-23T07:21:21;9.10;82.20
16517;DHT22;8371;52.272;9.746;2024-03-23T07:23:46;9.20;82.20
16517;DHT22;8371;52.272;9.746;2024-03-23T07:26:12;9.20;82.20
16517;DHT22;8371;52.272;9.746;2024-03-23T07:28:38;9.20;82.40
16517;DHT22;8371;52.272;9.746;2024-03-23T07:31:07;9.30;82.40
16517;DHT22;8371;52.272;9.746;2024-03-23T07:33:43;9.30;82.40
16517;DHT22;8371;52.272;9.746;2024-03-23T07:36:11;9.40;82.40
16517;DHT22;8371;52.272;9.746;2024-03-23T07:38:42;9.40;82.30
16517;DHT22;8371;52.272;9.746;2024-03-23T07:41:14;9.50;82.50
16517;DHT22;8371;52.272;9.746;2024-03-23T07:43:39;9.50;82.60
16517;DHT22;8371;52.272;9.746;2024-03-23T07:46:09;9.60;82.50
16517;DHT22;8371;52.272;9.746;2024-03-23T07:48:34;9.70;82.60
16517;DHT22;8371;52.272;9.746;2024-03-23T07:51:08;9.70;82.60
16517;DHT22;8371;52.272;9.746;2024-03-23T07:53:35;9.80;82.60
16517;DHT22;8371;52.272;9.746;2024-03-23T07:56:05;9.80;82.50
16517;DHT22;8371;52.272;9.746;2024-03-23T07:58:31;9.90;82.40
16517;DHT22;8371;52.272;9.746;2024-03-23T08:03:35;10.00;82.60
16517;DHT22;8371;52.272;9.746;2024-03-23T08:06:12;10.00;83.40
16517;DHT22;8371;52.272;9.746;2024-03-23T08:08:39;10.10;82.60
16517;DHT22;8371;52.272;9.746;2024-03-23T08:11:05;10.20;82.70
16517;DHT22;8371;52.272;9.746;2024-03-23T08:13:32;10.20;82.80
16517;DHT22;8371;52.272;9.746;2024-03-23T08:16:00;10.30;82.60
16517;DHT22;8371;52.272;9.746;2024-03-23T08:18:26;10.30;82.60
16517;DHT22;8371;52.272;9.746;2024-03-23T08:21:03;10.40;82.70
16517;DHT22;8371;52.272;9.746;2024-03-23T08:23:34;10.50;82.70
16517;DHT22;8371;52.272;9.746;2024-03-23T08:26:01;10.60;82.60
16517;DHT22;8371;52.272;9.746;2024-03-23T08:28:28;10.60;83.50
16517;DHT22;8371;52.272;9.746;2024-03-23T08:30:54;10.70;82.90
16517;DHT22;8371;52.272;9.746;2024-03-23T08:33:21;10.80;82.90
16517;DHT22;8371;52.272;9.746;2024-03-23T08:35:55;10.90;82.70
16517;DHT22;8371;52.272;9.746;2024-03-23T08:38:22;10.90;82.30
16517;DHT22;8371;52.272;9.746;2024-03-23T08:40:47;11.00;82.00
16517;DHT22;8371;52.272;9.746;2024-03-23T08:43:13;11.10;81.90
16517;DHT22;8371;52.272;9.746;2024-03-23T08:45:39;11.10;82.00
16517;DHT22;8371;52.272;9.746;2024-03-23T08:48:05;11.20;82.40
16517;DHT22;8371;52.272;9.746;2024-03-23T08:50:31;11.30;82.60
16517;DHT22;8371;52.272;9.746;2024-03-23T08:52:57;11.40;82.60
16517;DHT22;8371;52.272;9.746;2024-03-23T08:55:22;11.50;82.80
16517;DHT22;8371;52.272;9.746;2024-03-23T08:57:48;11.70;83.00
16517;DHT22;8371;52.272;9.746;2024-03-23T09:00:14;11.90;83.30
16517;DHT22;8371;52.272;9.746;2024-03-23T09:02:40;12.10;83.50
16517;DHT22;8371;52.272;9.746;2024-03-23T09:05:06;12.30;83.00
16517;DHT22;8371;52.272;9.746;2024-03-23T09:07:32;12.60;82.60
16517;DHT22;8371;52.272;9.746;2024-03-23T09:09:57;12.70;82.10
16517;DHT22;8371;52.272;9.746;2024-03-23T09:12:26;12.90;81.70
16517;DHT22;8371;52.272;9.746;2024-03-23T09:14:52;13.10;81.20
16517;DHT22;8371;52.272;9.746;2024-03-23T09:17:18;13.10;80.60
16517;DHT22;8371;52.272;9.746;2024-03-23T09:19:44;13.20;80.30
16517;DHT22;8371;52.272;9.746;2024-03-23T09:22:10;13.20;80.00
16517;DHT22;8371;52.272;9.746;2024-03-23T09:24:36;13.30;80.30
16517;DHT22;8371;52.272;9.746;2024-03-23T09:27:02;13.30;80.50
16517;DHT22;8371;52.272;9.746;2024-03-23T09:29:28;13.50;81.00
16517;DHT22;8371;52.272;9.746;2024-03-23T09:31:54;13.60;80.50
16517;DHT22;8371;52.272;9.746;2024-03-23T09:34:19;13.70;79.80
16517;DHT22;8371;52.272;9.746;2024-03-23T09:36:45;13.80;79.20
16517;DHT22;8371;52.272;9.746;2024-03-23T09:39:11;13.90;78.90
16517;DHT22;8371;52.272;9.746;2024-03-23T09:41:36;14.00;79.00
16517;DHT22;8371;52.272;9.746;2024-03-23T09:44:02;14.00;78.80
16517;DHT22;8371;52.272;9.746;2024-03-23T09:46:28;14.10;78.40
16517;DHT22;8371;52.272;9.746;2024-03-23T09:48:55;14.20;78.60
16517;DHT22;8371;52.272;9.746;2024-03-23T09:51:22;14.40;78.80
16517;DHT22;8371;52.272;9.746;2024-03-23T09:53:49;14.50;79.20
16517;DHT22;8371;52.272;9.746;2024-03-23T09:56:15;14.70;78.40
16517;DHT22;8371;52.272;9.746;2024-03-23T09:58:42;14.80;78.10
16517;DHT22;8371;52.272;9.746;2024-03-23T10:01:08;15.00;77.70
16517;DHT22;8371;52.272;9.746;2024-03-23T10:03:44;15.10;77.60
16517;DHT22;8371;52.272;9.746;2024-03-23T10:06:10;15.30;77.50
16517;DHT22;8371;52.272;9.746;2024-03-23T10:08:35;15.50;76.20
16517;DHT22;8371;52.272;9.746;2024-03-23T10:11:15;15.60;75.80
16517;DHT22;8371;52.272;9.746;2024-03-23T10:13:42;15.70;76.00
16517;DHT22;8371;52.272;9.746;2024-03-23T10:16:09;15.90;74.80
16517;DHT22;8371;52.272;9.746;2024-03-23T10:18:39;16.00;74.80
16517;DHT22;8371;52.272;9.746;2024-03-23T10:23:37;16.10;74.40
16517;DHT22;8371;52.272;9.746;2024-03-23T10:26:21;16.20;74.10
16517;DHT22;8371;52.272;9.746;2024-03-23T10:28:59;16.30;72.90
16517;DHT22;8371;52.272;9.746;2024-03-23T10:31:30;16.40;73.80
16517;DHT22;8371;52.272;9.746;2024-03-23T10:33:56;16.40;73.50
16517;DHT22;8371;52.272;9.746;2024-03-23T10:36:23;16.50;74.00
16517;DHT22;8371;52.272;9.746;2024-03-23T10:38:51;16.60;73.80
16517;DHT22;8371;52.272;9.746;2024-03-23T10:41:18;16.70;73.50
16517;DHT22;8371;52.272;9.746;2024-03-23T10:43:46;16.80;73.30
16517;DHT22;8371;52.272;9.746;2024-03-23T10:46:12;16.90;72.90
16517;DHT22;8371;52.272;9.746;2024-03-23T10:48:38;17.00;71.80
16517;DHT22;8371;52.272;9.746;2024-03-23T10:51:09;17.10;70.90
16517;DHT22;8371;52.272;9.746;2024-03-23T10:53:35;17.20;70.30
16517;DHT22;8371;52.272;9.746;2024-03-23T10:56:03;17.00;68.70
16517;DHT22;8371;52.272;9.746;2024-03-23T10:58:44;16.90;69.40
16517;DHT22;8371;52.272;9.746;2024-03-23T11:01:11;16.80;69.20
16517;DHT22;8371;52.272;9.746;2024-03-23T11:03:38;16.70;70.10
16517;DHT22;8371;52.272;9.746;2024-03-23T11:06:06;16.70;70.30
16517;DHT22;8371;52.272;9.746;2024-03-23T11:08:40;16.60;70.00
16517;DHT22;8371;52.272;9.746;2024-03-23T11:13:30;16.60;70.50
16517;DHT22;8371;52.272;9.746;2024-03-23T11:15:55;16.60;69.10
16517;DHT22;8371;52.272;9.746;2024-03-23T11:18:21;16.50;68.80
16517;DHT22;8371;52.272;9.746;2024-03-23T11:20:47;16.40;68.40
16517;DHT22;8371;52.272;9.746;2024-03-23T11:23:28;16.20;67.50
16517;DHT22;8371;52.272;9.746;2024-03-23T11:25:54;15.90;65.50
16517;DHT22;8371;52.272;9.746;2024-03-23T11:28:20;15.40;64.30
16517;DHT22;8371;52.272;9.746;2024-03-23T11:30:47;14.90;64.70
16517;DHT22;8371;52.272;9.746;2024-03-23T11:33:13;14.30;65.70
16517;DHT22;8371;52.272;9.746;2024-03-23T11:35:39;13.90;67.10
16517;DHT22;8371;52.272;9.746;2024-03-23T11:38:16;13.30;68.10
16517;DHT22;8371;52.272;9.746;2024-03-23T11:40:46;13.00;69.10
16517;DHT22;8371;52.272;9.746;2024-03-23T11:43:17;12.60;69.70
16517;DHT22;8371;52.272;9.746;2024-03-23T11:45:46;12.40;70.50
16517;DHT22;8371;52.272;9.746;2024-03-23T11:48:17;12.30;71.60
16517;DHT22;8371;52.272;9.746;2024-03-23T11:50:47;12.20;72.40
16517;DHT22;8371;52.272;9.746;2024-03-23T11:53:22;12.10;72.70
16517;DHT22;8371;52.272;9.746;2024-03-23T11:55:55;12.10;72.60
16517;DHT22;8371;52.272;9.746;2024-03-23T11:58:22;12.10;72.30
16517;DHT22;8371;52.272;9.746;2024-03-23T12:01:09;12.00;72.00
16517;DHT22;8371;52.272;9.746;2024-03-23T12:03:35;11.90;71.50
16517;DHT22;8371;52.272;9.746;2024-03-23T12:06:21;11.70;71.40
16517;DHT22;8371;52.272;9.746;2024-03-23T12:08:47;11.30;71.50
16517;DHT22;8371;52.272;9.746;2024-03-23T12:11:16;11.40;71.90
16517;DHT22;8371;52.272;9.746;2024-03-23T12:13:43;11.30;72.00
16517;DHT22;8371;52.272;9.746;2024-03-23T12:18:39;11.00;72.10
16517;DHT22;8371;52.272;9.746;2024-03-23T12:21:05;10.80;72.10
16517;DHT22;8371;52.272;9.746;2024-03-23T12:23:31;10.60;72.70
16517;DHT22;8371;52.272;9.746;2024-03-23T12:25:58;10.50;73.00
16517;DHT22;8371;52.272;9.746;2024-03-23T12:28:23;10.50;74.10
16517;DHT22;8371;52.272;9.746;2024-03-23T12:30:49;10.50;75.40
16517;DHT22;8371;52.272;9.746;2024-03-23T12:33:15;10.50;74.90
16517;DHT22;8371;52.272;9.746;2024-03-23T12:35:41;10.50;75.30
16517;DHT22;8371;52.272;9.746;2024-03-23T12:38:06;10.60;75.40
16517;DHT22;8371;52.272;9.746;2024-03-23T12:40:32;10.60;75.70
16517;DHT22;8371;52.272;9.746;2024-03-23T12:42:58;10.70;75.80
16517;DHT22;8371;52.272;9.746;2024-03-23T12:45:24;10.80;75.80
16517;DHT22;8371;52.272;9.746;2024-03-23T12:47:49;10.80;75.50
16517;DHT22;8371;52.272;9.746;2024-03-23T12:50:20;10.90;75.30
16517;DHT22;8371;52.272;9.746;2024-03-23T12:52:46;10.90;74.90
16517;DHT22;8371;52.272;9.746;2024-03-23T12:55:12;10.80;74.30
16517;DHT22;8371;52.272;9.746;2024-03-23T12:57:37;10.70;74.00
16517;DHT22;8371;52.272;9.746;2024-03-23T13:00:04;10.70;73.90
16517;DHT22;8371;52.272;9.746;2024-03-23T13:02:30;10.60;73.40
16517;DHT22;8371;52.272;9.746;2024-03-23T13:04:56;10.50;73.60
16517;DHT22;8371;52.272;9.746;2024-03-23T13:07:22;10.40;74.00
16517;DHT22;8371;52.272;9.746;2024-03-23T13:09:52;10.30;74.20
16517;DHT22;8371;52.272;9.746;2024-03-23T13:12:21;10.40;74.40
16517;DHT22;8371;52.272;9.746;2024-03-23T13:14:47;10.40;75.00
16517;DHT22;8371;52.272;9.746;2024-03-23T13:17:13;10.40;75.80
16517;DHT22;8371;52.272;9.746;2024-03-23T13:19:39;10.60;76.50
16517;DHT22;8371;52.272;9.746;2024-03-23T13:22:05;10.70;76.60
16517;DHT22;8371;52.272;9.746;2024-03-23T13:24:31;10.90;76.50
16517;DHT22;8371;52.272;9.746;2024-03-23T13:26:57;11.10;76.70
16517;DHT22;8371;52.272;9.746;2024-03-23T13:29:24;11.30;76.50
16517;DHT22;8371;52.272;9.746;2024-03-23T13:31:51;11.40;75.90
16517;DHT22;8371;52.272;9.746;2024-03-23T13:34:18;11.60;75.40
16517;DHT22;8371;52.272;9.746;2024-03-23T13:36:44;11.70;75.10
16517;DHT22;8371;52.272;9.746;2024-03-23T13:39:11;11.80;74.80
16517;DHT22;8371;52.272;9.746;2024-03-23T13:41:40;11.80;74.10
16517;DHT22;8371;52.272;9.746;2024-03-23T13:44:07;11.90;74.60
16517;DHT22;8371;52.272;9.746;2024-03-23T13:46:33;11.90;74.10
16517;DHT22;8371;52.272;9.746;2024-03-23T13:49:00;12.00;74.00
16517;DHT22;8371;52.272;9.746;2024-03-23T13:51:26;12.00;73.80
16517;DHT22;8371;52.272;9.746;2024-03-23T13:53:53;12.00;73.90
16517;DHT22;8371;52.272;9.746;2024-03-23T13:56:20;12.10;73.90
16517;DHT22;8371;52.272;9.746;2024-03-23T13:58:46;12.10;73.60
16517;DHT22;8371;52.272;9.746;2024-03-23T14:01:15;12.10;73.40
16517;DHT22;8371;52.272;9.746;2024-03-23T14:03:42;12.10;73.40
16517;DHT22;8371;52.272;9.746;2024-03-23T14:06:08;12.10;74.10
16517;DHT22;8371;52.272;9.746;2024-03-23T14:08:35;12.10;73.20
16517;DHT22;8371;52.272;9.746;2024-03-23T14:11:03;12.00;73.30
16517;DHT22;8371;52.272;9.746;2024-03-23T14:13:29;12.00;73.40
16517;DHT22;8371;52.272;9.746;2024-03-23T14:15:55;12.00;73.30
16517;DHT22;8371;52.272;9.746;2024-03-23T14:18:21;12.00;73.30
16517;DHT22;8371;52.272;9.746;2024-03-23T14:20:49;11.90;72.90
16517;DHT22;8371;52.272;9.746;2024-03-23T14:23:15;11.90;72.80
16517;DHT22;8371;52.272;9.746;2024-03-23T14:25:41;11.90;72.80
16517;DHT22;8371;52.272;9.746;2024-03-23T14:28:07;11.90;72.60
16517;DHT22;8371;52.272;9.746;2024-03-23T14:30:34;11.90;72.60
16517;DHT22;8371;52.272;9.746;2024-03-23T14:33:00;11.90;72.00
16517;DHT22;8371;52.272;9.746;2024-03-23T14:35:26;11.80;71.30
16517;DHT22;8371;52.272;9.746;2024-03-23T14:37:52;11.70;70.20
16517;DHT22;8371;52.272;9.746;2024-03-23T14:40:18;11.60;69.60
16517;DHT22;8371;52.272;9.746;2024-03-23T14:42:44;11.20;69.30
16517;DHT22;8371;52.272;9.746;2024-03-23T14:45:10;11.00;69.60
16517;DHT22;8371;52.272;9.746;2024-03-23T14:47:37;10.70;69.60
16517;DHT22;8371;52.272;9.746;2024-03-23T14:50:02;10.40;70.10
16517;DHT22;8371;52.272;9.746;2024-03-23T14:52:28;10.10;70.40
16517;DHT22;8371;52.272;9.746;2024-03-23T14:54:54;9.90;70.90
16517;DHT22;8371;52.272;9.746;2024-03-23T14:57:21;9.70;71.40
16517;DHT22;8371;52.272;9.746;2024-03-23T14:59:47;9.50;72.00
16517;DHT22;8371;52.272;9.746;2024-03-23T15:02:13;9.40;72.90
16517;DHT22;8371;52.272;9.746;2024-03-23T15:04:39;9.40;74.00
16517;DHT22;8371;52.272;9.746;2024-03-23T15:07:06;9.50;74.80
16517;DHT22;8371;52.272;9.746;2024-03-23T15:09:32;9.60;75.40
16517;DHT22;8371;52.272;9.746;2024-03-23T15:12:12;9.80;75.70
16517;DHT22;8371;52.272;9.746;2024-03-23T15:14:46;10.00;75.80
16517;DHT22;8371;52.272;9.746;2024-03-23T15:17:11;10.20;75.70
16517;DHT22;8371;52.272;9.746;2024-03-23T15:19:37;10.40;75.50
16517;DHT22;8371;52.272;9.746;2024-03-23T15:22:03;10.60;75.10
16517;DHT22;8371;52.272;9.746;2024-03-23T15:24:29;10.80;75.20
16517;DHT22;8371;52.272;9.746;2024-03-23T15:26:54;11.00;75.00
16517;DHT22;8371;52.272;9.746;2024-03-23T15:29:21;11.10;74.70
16517;DHT22;8371;52.272;9.746;2024-03-23T15:31:47;11.30;74.40
16517;DHT22;8371;52.272;9.746;2024-03-23T15:34:15;11.40;74.50
16517;DHT22;8371;52.272;9.746;2024-03-23T15:36:40;11.50;74.20
16517;DHT22;8371;52.272;9.746;2024-03-23T15:39:06;11.60;73.80
16517;DHT22;8371;52.272;9.746;2024-03-23T15:41:32;11.70;73.50
16517;DHT22;8371;52.272;9.746;2024-03-23T15:43:59;11.80;73.10
16517;DHT22;8371;52.272;9.746;2024-03-23T15:46:25;11.90;73.00
16517;DHT22;8371;52.272;9.746;2024-03-23T15:48:51;11.90;72.50
16517;DHT22;8371;52.272;9.746;2024-03-23T15:51:16;11.80;72.10
16517;DHT22;8371;52.272;9.746;2024-03-23T15:53:43;11.80;71.80
16517;DHT22;8371;52.272;9.746;2024-03-23T15:56:09;11.70;71.40
16517;DHT22;8371;52.272;9.746;2024-03-23T15:58:35;11.70;71.40
16517;DHT22;8371;52.272;9.746;2024-03-23T16:01:03;11.50;70.50
16517;DHT22;8371;52.272;9.746;2024-03-23T16:03:30;11.30;70.40
16517;DHT22;8371;52.272;9.746;2024-03-23T16:05:59;10.90;70.40
16517;DHT22;8371;52.272;9.746;2024-03-23T16:08:25;10.70;70.70
16517;DHT22;8371;52.272;9.746;2024-03-23T16:10:52;10.40;71.10
16517;DHT22;8371;52.272;9.746;2024-03-23T16:13:19;10.20;71.50
16517;DHT22;8371;52.272;9.746;2024-03-23T16:15:45;10.00;72.10
16517;DHT22;8371;52.272;9.746;2024-03-23T16:18:11;9.80;72.90
16517;DHT22;8371;52.272;9.746;2024-03-23T16:20:37;9.80;73.70
16517;DHT22;8371;52.272;9.746;2024-03-23T16:23:03;9.70;74.30
16517;DHT22;8371;52.272;9.746;2024-03-23T16:25:29;9.60;74.20
16517;DHT22;8371;52.272;9.746;2024-03-23T16:27:56;9.70;74.20
16517;DHT22;8371;52.272;9.746;2024-03-23T16:30:22;9.60;74.00
16517;DHT22;8371;52.272;9.746;2024-03-23T16:32:48;9.60;74.10
16517;DHT22;8371;52.272;9.746;2024-03-23T16:35:14;9.50;74.10
16517;DHT22;8371;52.272;9.746;2024-03-23T16:37:40;9.50;74.20
16517;DHT22;8371;52.272;9.746;2024-03-23T16:40:07;9.40;74.40
16517;DHT22;8371;52.272;9.746;2024-03-23T16:42:35;9.40;74.80
16517;DHT22;8371;52.272;9.746;2024-03-23T16:45:01;9.40;74.90
16517;DHT22;8371;52.272;9.746;2024-03-23T16:47:28;9.40;75.10
16517;DHT22;8371;52.272;9.746;2024-03-23T16:49:54;9.40;75.20
16517;DHT22;8371;52.272;9.746;2024-03-23T16:52:19;9.40;75.20
16517;DHT22;8371;52.272;9.746;2024-03-23T16:54:45;9.40;75.20